sensor_id;sensor_type;location;lat;lon;timestamp;P1;durP1;ratioP1;P2;durP2;ratioP2
16660;SDS011;8444;52.012;5.048;2023-02-13T00:01:42;28.73;;;15.83;;
16660;SDS011;8444;52.012;5.048;2023-02-13T00:04:08;27.33;;;16.47;;
16660;SDS011;8444;52.012;5.048;2023-02-13T00:06:33;30.83;;;16.57;;
16660;SDS011;8444;52.012;5.048;2023-02-13T00:08:58;25.23;;;16.60;;
16660;SDS011;8444;52.012;5.048;2023-02-13T00:11:23;29.00;;;17.20;;
16660;SDS011;8444;52.012;5.048;2023-02-13T00:13:48;24.77;;;15.37;;
16660;SDS011;8444;52.012;5.048;2023-02-13T00:16:14;25.43;;;15.67;;
16660;SDS011;8444;52.012;5.048;2023-02-13T00:18:39;29.17;;;16.93;;
16660;SDS011;8444;52.012;5.048;2023-02-13T00:21:11;26.73;;;16.00;;
16660;SDS011;8444;52.012;5.048;2023-02-13T00:23:36;31.47;;;16.27;;
16660;SDS011;8444;52.012;5.048;2023-02-13T00:26:07;28.90;;;17.53;;
16660;SDS011;8444;52.012;5.048;2023-02-13T00:28:32;26.90;;;16.23;;
16660;SDS011;8444;52.012;5.048;2023-02-13T00:31:04;30.43;;;17.33;;
16660;SDS011;8444;52.012;5.048;2023-02-13T00:33:30;27.67;;;16.40;;
16660;SDS011;8444;52.012;5.048;2023-02-13T00:36:02;26.00;;;14.77;;
16660;SDS011;8444;52.012;5.048;2023-02-13T00:38:28;26.73;;;16.13;;
16660;SDS011;8444;52.012;5.048;2023-02-13T00:40:53;27.57;;;15.80;;
16660;SDS011;8444;52.012;5.048;2023-02-13T00:43:19;26.03;;;16.47;;
16660;SDS011;8444;52.012;5.048;2023-02-13T00:45:44;31.63;;;16.13;;
16660;SDS011;8444;52.012;5.048;2023-02-13T00:48:09;27.30;;;17.10;;
16660;SDS011;8444;52.012;5.048;2023-02-13T00:50:34;29.80;;;15.43;;
16660;SDS011;8444;52.012;5.048;2023-02-13T00:52:59;26.77;;;15.67;;
16660;SDS011;8444;52.012;5.048;2023-02-13T00:55:24;26.23;;;14.50;;
16660;SDS011;8444;52.012;5.048;2023-02-13T00:57:50;25.60;;;14.23;;
16660;SDS011;8444;52.012;5.048;2023-02-13T01:00:15;27.70;;;16.33;;
16660;SDS011;8444;52.012;5.048;2023-02-13T01:02:40;29.30;;;16.87;;
16660;SDS011;8444;52.012;5.048;2023-02-13T01:05:06;23.67;;;14.37;;
16660;SDS011;8444;52.012;5.048;2023-02-13T01:07:31;28.33;;;15.23;;
16660;SDS011;8444;52.012;5.048;2023-02-13T01:09:56;23.80;;;14.73;;
16660;SDS011;8444;52.012;5.048;2023-02-13T01:12:21;25.50;;;15.40;;
16660;SDS011;8444;52.012;5.048;2023-02-13T01:14:46;24.87;;;14.87;;
16660;SDS011;8444;52.012;5.048;2023-02-13T01:17:12;32.57;;;17.43;;
16660;SDS011;8444;52.012;5.048;2023-02-13T01:19:39;23.07;;;14.07;;
16660;SDS011;8444;52.012;5.048;2023-02-13T01:22:04;25.90;;;15.20;;
16660;SDS011;8444;52.012;5.048;2023-02-13T01:24:30;27.20;;;15.60;;
16660;SDS011;8444;52.012;5.048;2023-02-13T01:26:57;26.43;;;14.70;;
16660;SDS011;8444;52.012;5.048;2023-02-13T01:29:22;23.63;;;14.27;;
16660;SDS011;8444;52.012;5.048;2023-02-13T01:31:47;24.40;;;14.27;;
16660;SDS011;8444;52.012;5.048;2023-02-13T01:34:12;26.07;;;14.23;;
16660;SDS011;8444;52.012;5.048;2023-02-13T01:36:38;29.50;;;14.10;;
16660;SDS011;8444;52.012;5.048;2023-02-13T01:39:03;25.20;;;14.73;;
16660;SDS011;8444;52.012;5.048;2023-02-13T01:41:28;23.90;;;13.50;;
16660;SDS011;8444;52.012;5.048;2023-02-13T01:43:55;25.93;;;14.60;;
16660;SDS011;8444;52.012;5.048;2023-02-13T01:46:26;23.50;;;13.93;;
16660;SDS011;8444;52.012;5.048;2023-02-13T01:48:53;23.73;;;13.93;;
16660;SDS011;8444;52.012;5.048;2023-02-13T01:51:21;23.40;;;13.83;;
16660;SDS011;8444;52.012;5.048;2023-02-13T01:53:49;26.63;;;14.93;;
16660;SDS011;8444;52.012;5.048;2023-02-13T01:59:14;23.80;;;13.87;;
16660;SDS011;8444;52.012;5.048;2023-02-13T02:01:41;24.00;;;13.17;;
16660;SDS011;8444;52.012;5.048;2023-02-13T02:04:08;24.70;;;14.57;;
16660;SDS011;8444;52.012;5.048;2023-02-13T02:06:36;25.37;;;13.13;;
16660;SDS011;8444;52.012;5.048;2023-02-13T02:09:04;21.27;;;12.67;;
16660;SDS011;8444;52.012;5.048;2023-02-13T02:11:35;23.00;;;12.73;;
16660;SDS011;8444;52.012;5.048;2023-02-13T02:14:02;29.30;;;12.90;;
16660;SDS011;8444;52.012;5.048;2023-02-13T02:16:27;24.63;;;13.70;;
16660;SDS011;8444;52.012;5.048;2023-02-13T02:18:53;24.47;;;13.47;;
16660;SDS011;8444;52.012;5.048;2023-02-13T02:21:26;21.80;;;12.97;;
16660;SDS011;8444;52.012;5.048;2023-02-13T02:47:26;26.70;;;14.70;;
16660;SDS011;8444;52.012;5.048;2023-02-13T02:50:13;23.83;;;12.77;;
16660;SDS011;8444;52.012;5.048;2023-02-13T02:55:12;21.47;;;13.00;;
16660;SDS011;8444;52.012;5.048;2023-02-13T02:57:50;22.07;;;12.23;;
16660;SDS011;8444;52.012;5.048;2023-02-13T03:00:38;21.93;;;12.30;;
16660;SDS011;8444;52.012;5.048;2023-02-13T03:03:23;21.60;;;12.53;;
16660;SDS011;8444;52.012;5.048;2023-02-13T03:06:10;24.03;;;13.60;;
16660;SDS011;8444;52.012;5.048;2023-02-13T03:08:38;21.73;;;12.50;;
16660;SDS011;8444;52.012;5.048;2023-02-13T03:11:23;22.63;;;12.77;;
16660;SDS011;8444;52.012;5.048;2023-02-13T03:14:08;22.63;;;12.47;;
16660;SDS011;8444;52.012;5.048;2023-02-13T03:16:34;24.43;;;13.27;;
16660;SDS011;8444;52.012;5.048;2023-02-13T03:19:21;26.07;;;13.90;;
16660;SDS011;8444;52.012;5.048;2023-02-13T03:25:05;27.40;;;14.30;;
16660;SDS011;8444;52.012;5.048;2023-02-13T03:32:52;24.13;;;13.33;;
16660;SDS011;8444;52.012;5.048;2023-02-13T03:41:04;25.97;;;14.90;;
16660;SDS011;8444;52.012;5.048;2023-02-13T03:46:14;26.73;;;13.80;;
16660;SDS011;8444;52.012;5.048;2023-02-13T03:48:40;26.73;;;14.47;;
16660;SDS011;8444;52.012;5.048;2023-02-13T03:53:52;25.53;;;14.43;;
16660;SDS011;8444;52.012;5.048;2023-02-13T03:56:19;26.27;;;14.97;;
16660;SDS011;8444;52.012;5.048;2023-02-13T03:59:03;24.00;;;13.83;;
16660;SDS011;8444;52.012;5.048;2023-02-13T04:01:40;23.57;;;13.67;;
16660;SDS011;8444;52.012;5.048;2023-02-13T04:06:37;22.87;;;14.43;;
16660;SDS011;8444;52.012;5.048;2023-02-13T04:09:06;24.37;;;14.33;;
16660;SDS011;8444;52.012;5.048;2023-02-13T04:11:34;26.27;;;15.47;;
16660;SDS011;8444;52.012;5.048;2023-02-13T04:14:03;26.43;;;14.00;;
16660;SDS011;8444;52.012;5.048;2023-02-13T04:18:59;27.47;;;15.70;;
16660;SDS011;8444;52.012;5.048;2023-02-13T04:21:25;22.03;;;13.70;;
16660;SDS011;8444;52.012;5.048;2023-02-13T04:23:50;25.80;;;15.33;;
16660;SDS011;8444;52.012;5.048;2023-02-13T04:26:16;23.53;;;13.70;;
16660;SDS011;8444;52.012;5.048;2023-02-13T04:28:42;24.13;;;14.23;;
16660;SDS011;8444;52.012;5.048;2023-02-13T04:31:07;24.23;;;14.13;;
16660;SDS011;8444;52.012;5.048;2023-02-13T04:33:32;24.13;;;14.53;;
16660;SDS011;8444;52.012;5.048;2023-02-13T04:35:57;28.77;;;15.03;;
16660;SDS011;8444;52.012;5.048;2023-02-13T04:38:22;26.67;;;14.80;;
16660;SDS011;8444;52.012;5.048;2023-02-13T04:40:48;24.30;;;13.87;;
16660;SDS011;8444;52.012;5.048;2023-02-13T04:43:13;26.37;;;14.47;;
16660;SDS011;8444;52.012;5.048;2023-02-13T04:45:38;29.37;;;15.77;;
16660;SDS011;8444;52.012;5.048;2023-02-13T04:48:03;25.80;;;15.13;;
16660;SDS011;8444;52.012;5.048;2023-02-13T04:50:28;23.93;;;14.87;;
16660;SDS011;8444;52.012;5.048;2023-02-13T04:52:54;29.00;;;14.20;;
16660;SDS011;8444;52.012;5.048;2023-02-13T04:55:20;30.80;;;16.10;;
16660;SDS011;8444;52.012;5.048;2023-02-13T04:57:45;28.17;;;15.53;;
16660;SDS011;8444;52.012;5.048;2023-02-13T05:00:10;25.90;;;15.03;;
16660;SDS011;8444;52.012;5.048;2023-02-13T05:02:36;30.63;;;15.77;;
16660;SDS011;8444;52.012;5.048;2023-02-13T05:05:01;29.17;;;15.30;;
16660;SDS011;8444;52.012;5.048;2023-02-13T05:07:26;27.97;;;14.07;;
16660;SDS011;8444;52.012;5.048;2023-02-13T05:09:51;32.03;;;17.47;;
16660;SDS011;8444;52.012;5.048;2023-02-13T05:12:16;27.83;;;15.73;;
16660;SDS011;8444;52.012;5.048;2023-02-13T05:14:42;27.00;;;15.23;;
16660;SDS011;8444;52.012;5.048;2023-02-13T05:17:07;27.70;;;14.77;;
16660;SDS011;8444;52.012;5.048;2023-02-13T05:19:33;29.23;;;15.27;;
16660;SDS011;8444;52.012;5.048;2023-02-13T05:21:58;26.40;;;14.77;;
16660;SDS011;8444;52.012;5.048;2023-02-13T05:24:41;31.07;;;16.63;;
16660;SDS011;8444;52.012;5.048;2023-02-13T05:27:07;27.00;;;16.23;;
16660;SDS011;8444;52.012;5.048;2023-02-13T05:29:32;24.00;;;14.07;;
16660;SDS011;8444;52.012;5.048;2023-02-13T05:31:57;29.00;;;15.60;;
16660;SDS011;8444;52.012;5.048;2023-02-13T05:34:24;32.90;;;17.57;;
16660;SDS011;8444;52.012;5.048;2023-02-13T05:36:50;24.73;;;14.50;;
16660;SDS011;8444;52.012;5.048;2023-02-13T05:39:15;27.93;;;16.30;;
16660;SDS011;8444;52.012;5.048;2023-02-13T05:41:41;30.00;;;16.17;;
16660;SDS011;8444;52.012;5.048;2023-02-13T05:44:07;31.33;;;16.50;;
16660;SDS011;8444;52.012;5.048;2023-02-13T05:46:32;30.47;;;16.80;;
16660;SDS011;8444;52.012;5.048;2023-02-13T05:48:57;30.03;;;15.90;;
16660;SDS011;8444;52.012;5.048;2023-02-13T05:51:23;28.30;;;16.00;;
16660;SDS011;8444;52.012;5.048;2023-02-13T05:53:48;30.63;;;16.20;;
16660;SDS011;8444;52.012;5.048;2023-02-13T05:56:13;27.23;;;15.80;;
16660;SDS011;8444;52.012;5.048;2023-02-13T05:58:38;30.77;;;16.53;;
16660;SDS011;8444;52.012;5.048;2023-02-13T06:01:04;31.83;;;16.73;;
16660;SDS011;8444;52.012;5.048;2023-02-13T06:03:29;30.07;;;16.83;;
16660;SDS011;8444;52.012;5.048;2023-02-13T06:05:55;27.60;;;16.47;;
16660;SDS011;8444;52.012;5.048;2023-02-13T06:08:20;29.83;;;16.87;;
16660;SDS011;8444;52.012;5.048;2023-02-13T06:10:46;26.93;;;16.07;;
16660;SDS011;8444;52.012;5.048;2023-02-13T06:13:11;33.43;;;16.50;;
16660;SDS011;8444;52.012;5.048;2023-02-13T06:15:36;28.40;;;16.93;;
16660;SDS011;8444;52.012;5.048;2023-02-13T06:18:01;31.90;;;17.00;;
16660;SDS011;8444;52.012;5.048;2023-02-13T06:20:26;29.80;;;16.63;;
16660;SDS011;8444;52.012;5.048;2023-02-13T06:22:52;30.63;;;17.57;;
16660;SDS011;8444;52.012;5.048;2023-02-13T06:25:17;30.90;;;17.53;;
16660;SDS011;8444;52.012;5.048;2023-02-13T06:27:43;33.30;;;18.20;;
16660;SDS011;8444;52.012;5.048;2023-02-13T06:30:08;30.60;;;17.57;;
16660;SDS011;8444;52.012;5.048;2023-02-13T06:32:34;29.67;;;17.30;;
16660;SDS011;8444;52.012;5.048;2023-02-13T06:34:59;30.13;;;17.90;;
16660;SDS011;8444;52.012;5.048;2023-02-13T06:37:24;31.73;;;18.23;;
16660;SDS011;8444;52.012;5.048;2023-02-13T06:39:49;30.20;;;18.13;;
16660;SDS011;8444;52.012;5.048;2023-02-13T06:42:14;32.07;;;17.40;;
16660;SDS011;8444;52.012;5.048;2023-02-13T06:44:39;30.53;;;16.13;;
16660;SDS011;8444;52.012;5.048;2023-02-13T06:47:05;30.00;;;16.80;;
16660;SDS011;8444;52.012;5.048;2023-02-13T06:49:30;33.27;;;17.93;;
16660;SDS011;8444;52.012;5.048;2023-02-13T06:51:55;29.17;;;17.07;;
16660;SDS011;8444;52.012;5.048;2023-02-13T06:54:20;29.77;;;17.43;;
16660;SDS011;8444;52.012;5.048;2023-02-13T06:56:46;31.47;;;18.00;;
16660;SDS011;8444;52.012;5.048;2023-02-13T06:59:11;32.33;;;18.53;;
16660;SDS011;8444;52.012;5.048;2023-02-13T07:01:36;32.07;;;18.30;;
16660;SDS011;8444;52.012;5.048;2023-02-13T07:04:01;36.53;;;18.50;;
16660;SDS011;8444;52.012;5.048;2023-02-13T07:06:27;34.53;;;19.47;;
16660;SDS011;8444;52.012;5.048;2023-02-13T07:08:52;31.23;;;17.70;;
16660;SDS011;8444;52.012;5.048;2023-02-13T07:11:20;37.13;;;18.03;;
16660;SDS011;8444;52.012;5.048;2023-02-13T07:13:46;30.83;;;17.60;;
16660;SDS011;8444;52.012;5.048;2023-02-13T07:16:11;37.77;;;20.40;;
16660;SDS011;8444;52.012;5.048;2023-02-13T07:18:36;36.17;;;18.40;;
16660;SDS011;8444;52.012;5.048;2023-02-13T07:21:01;36.57;;;18.73;;
16660;SDS011;8444;52.012;5.048;2023-02-13T07:23:26;32.73;;;17.77;;
16660;SDS011;8444;52.012;5.048;2023-02-13T07:25:51;36.63;;;20.43;;
16660;SDS011;8444;52.012;5.048;2023-02-13T07:28:17;35.83;;;19.10;;
16660;SDS011;8444;52.012;5.048;2023-02-13T07:30:42;38.03;;;19.13;;
16660;SDS011;8444;52.012;5.048;2023-02-13T07:33:08;37.17;;;18.87;;
16660;SDS011;8444;52.012;5.048;2023-02-13T07:35:33;34.40;;;19.47;;
16660;SDS011;8444;52.012;5.048;2023-02-13T07:38:00;36.13;;;19.67;;
16660;SDS011;8444;52.012;5.048;2023-02-13T07:40:25;37.03;;;20.03;;
16660;SDS011;8444;52.012;5.048;2023-02-13T07:42:50;39.40;;;19.60;;
16660;SDS011;8444;52.012;5.048;2023-02-13T07:45:15;37.23;;;19.53;;
16660;SDS011;8444;52.012;5.048;2023-02-13T07:47:41;35.97;;;20.77;;
16660;SDS011;8444;52.012;5.048;2023-02-13T07:50:07;37.50;;;19.20;;
16660;SDS011;8444;52.012;5.048;2023-02-13T07:52:32;38.87;;;19.33;;
16660;SDS011;8444;52.012;5.048;2023-02-13T07:54:57;36.73;;;19.93;;
16660;SDS011;8444;52.012;5.048;2023-02-13T07:57:22;39.63;;;20.67;;
16660;SDS011;8444;52.012;5.048;2023-02-13T07:59:48;47.63;;;21.67;;
16660;SDS011;8444;52.012;5.048;2023-02-13T08:02:14;41.30;;;22.10;;
16660;SDS011;8444;52.012;5.048;2023-02-13T08:04:39;39.33;;;20.57;;
16660;SDS011;8444;52.012;5.048;2023-02-13T08:07:05;40.20;;;20.80;;
16660;SDS011;8444;52.012;5.048;2023-02-13T08:09:30;42.37;;;22.67;;
16660;SDS011;8444;52.012;5.048;2023-02-13T08:12:31;36.73;;;20.17;;
16660;SDS011;8444;52.012;5.048;2023-02-13T08:14:58;42.33;;;22.00;;
16660;SDS011;8444;52.012;5.048;2023-02-13T08:17:23;40.80;;;21.63;;
16660;SDS011;8444;52.012;5.048;2023-02-13T08:19:48;40.47;;;20.57;;
16660;SDS011;8444;52.012;5.048;2023-02-13T08:22:13;41.63;;;22.37;;
16660;SDS011;8444;52.012;5.048;2023-02-13T08:24:38;34.37;;;19.73;;
16660;SDS011;8444;52.012;5.048;2023-02-13T08:27:03;35.23;;;19.53;;
16660;SDS011;8444;52.012;5.048;2023-02-13T08:29:29;32.00;;;19.67;;
16660;SDS011;8444;52.012;5.048;2023-02-13T08:31:54;30.33;;;19.27;;
16660;SDS011;8444;52.012;5.048;2023-02-13T08:34:19;34.33;;;18.73;;
16660;SDS011;8444;52.012;5.048;2023-02-13T08:36:44;31.77;;;19.53;;
16660;SDS011;8444;52.012;5.048;2023-02-13T08:39:09;28.53;;;18.30;;
16660;SDS011;8444;52.012;5.048;2023-02-13T08:41:35;26.17;;;17.53;;
16660;SDS011;8444;52.012;5.048;2023-02-13T08:44:00;28.00;;;18.73;;
16660;SDS011;8444;52.012;5.048;2023-02-13T08:46:25;26.80;;;16.13;;
16660;SDS011;8444;52.012;5.048;2023-02-13T08:48:50;29.40;;;17.40;;
16660;SDS011;8444;52.012;5.048;2023-02-13T08:51:16;30.40;;;19.17;;
16660;SDS011;8444;52.012;5.048;2023-02-13T08:53:41;28.53;;;18.60;;
16660;SDS011;8444;52.012;5.048;2023-02-13T08:56:06;26.90;;;17.02;;
16660;SDS011;8444;52.012;5.048;2023-02-13T08:58:32;24.15;;;16.27;;
16660;SDS011;8444;52.012;5.048;2023-02-13T09:00:57;26.55;;;17.95;;
16660;SDS011;8444;52.012;5.048;2023-02-13T09:03:22;28.70;;;17.88;;
16660;SDS011;8444;52.012;5.048;2023-02-13T09:05:47;24.73;;;15.90;;
16660;SDS011;8444;52.012;5.048;2023-02-13T09:08:13;26.08;;;16.70;;
16660;SDS011;8444;52.012;5.048;2023-02-13T09:10:39;26.50;;;18.17;;
16660;SDS011;8444;52.012;5.048;2023-02-13T09:13:04;27.20;;;17.53;;
16660;SDS011;8444;52.012;5.048;2023-02-13T09:15:29;23.30;;;17.37;;
16660;SDS011;8444;52.012;5.048;2023-02-13T09:17:55;26.67;;;16.38;;
16660;SDS011;8444;52.012;5.048;2023-02-13T09:20:20;25.67;;;17.30;;
16660;SDS011;8444;52.012;5.048;2023-02-13T09:22:45;26.02;;;17.48;;
16660;SDS011;8444;52.012;5.048;2023-02-13T09:25:12;26.50;;;16.45;;
16660;SDS011;8444;52.012;5.048;2023-02-13T09:27:37;26.55;;;17.10;;
16660;SDS011;8444;52.012;5.048;2023-02-13T09:30:06;27.25;;;16.52;;
16660;SDS011;8444;52.012;5.048;2023-02-13T09:32:31;36.80;;;17.70;;
16660;SDS011;8444;52.012;5.048;2023-02-13T09:34:58;24.60;;;17.23;;
16660;SDS011;8444;52.012;5.048;2023-02-13T09:37:24;24.27;;;16.45;;
16660;SDS011;8444;52.012;5.048;2023-02-13T09:39:49;27.10;;;17.53;;
16660;SDS011;8444;52.012;5.048;2023-02-13T09:44:43;26.67;;;17.08;;
16660;SDS011;8444;52.012;5.048;2023-02-13T09:47:13;25.98;;;17.15;;
16660;SDS011;8444;52.012;5.048;2023-02-13T09:49:41;26.63;;;17.07;;
16660;SDS011;8444;52.012;5.048;2023-02-13T09:52:07;27.55;;;17.23;;
16660;SDS011;8444;52.012;5.048;2023-02-13T09:54:33;26.38;;;16.52;;
16660;SDS011;8444;52.012;5.048;2023-02-13T09:57:00;25.13;;;16.30;;
16660;SDS011;8444;52.012;5.048;2023-02-13T10:01:59;25.98;;;17.92;;
16660;SDS011;8444;52.012;5.048;2023-02-13T10:07:34;26.27;;;16.90;;
16660;SDS011;8444;52.012;5.048;2023-02-13T10:09:43;26.77;;;16.40;;
16660;SDS011;8444;52.012;5.048;2023-02-13T10:12:12;25.38;;;16.35;;
16660;SDS011;8444;52.012;5.048;2023-02-13T10:17:52;25.02;;;15.60;;
16660;SDS011;8444;52.012;5.048;2023-02-13T10:22:55;22.73;;;16.70;;
16660;SDS011;8444;52.012;5.048;2023-02-13T10:25:24;18.77;;;14.25;;
16660;SDS011;8444;52.012;5.048;2023-02-13T10:27:54;20.13;;;14.43;;
16660;SDS011;8444;52.012;5.048;2023-02-13T10:30:21;24.95;;;16.83;;
16660;SDS011;8444;52.012;5.048;2023-02-13T10:32:48;24.67;;;17.60;;
16660;SDS011;8444;52.012;5.048;2023-02-13T10:37:41;21.70;;;15.38;;
16660;SDS011;8444;52.012;5.048;2023-02-13T10:40:08;22.02;;;15.70;;
16660;SDS011;8444;52.012;5.048;2023-02-13T10:42:41;20.02;;;14.57;;
16660;SDS011;8444;52.012;5.048;2023-02-13T10:55:18;20.20;;;14.27;;
16660;SDS011;8444;52.012;5.048;2023-02-13T10:57:56;19.80;;;13.57;;
16660;SDS011;8444;52.012;5.048;2023-02-13T11:00:28;22.02;;;14.73;;
16660;SDS011;8444;52.012;5.048;2023-02-13T11:02:57;18.83;;;13.05;;
16660;SDS011;8444;52.012;5.048;2023-02-13T11:05:35;23.10;;;13.75;;
16660;SDS011;8444;52.012;5.048;2023-02-13T11:08:01;19.58;;;13.02;;
16660;SDS011;8444;52.012;5.048;2023-02-13T11:10:27;24.02;;;15.95;;
16660;SDS011;8444;52.012;5.048;2023-02-13T11:12:52;21.33;;;13.38;;
16660;SDS011;8444;52.012;5.048;2023-02-13T11:17:53;19.52;;;13.57;;
16660;SDS011;8444;52.012;5.048;2023-02-13T11:22:47;19.45;;;14.25;;
16660;SDS011;8444;52.012;5.048;2023-02-13T11:25:20;19.17;;;13.15;;
16660;SDS011;8444;52.012;5.048;2023-02-13T11:27:47;18.23;;;13.30;;
16660;SDS011;8444;52.012;5.048;2023-02-13T11:32:57;18.40;;;13.20;;
16660;SDS011;8444;52.012;5.048;2023-02-13T11:35:34;16.75;;;11.98;;
16660;SDS011;8444;52.012;5.048;2023-02-13T11:40:34;18.65;;;13.35;;
16660;SDS011;8444;52.012;5.048;2023-02-13T11:43:00;22.13;;;14.50;;
16660;SDS011;8444;52.012;5.048;2023-02-13T11:45:25;18.52;;;13.07;;
16660;SDS011;8444;52.012;5.048;2023-02-13T11:47:51;16.88;;;13.18;;
16660;SDS011;8444;52.012;5.048;2023-02-13T11:50:33;18.25;;;13.68;;
16660;SDS011;8444;52.012;5.048;2023-02-13T11:55:37;15.80;;;12.57;;
16660;SDS011;8444;52.012;5.048;2023-02-13T11:58:04;17.75;;;12.70;;
16660;SDS011;8444;52.012;5.048;2023-02-13T12:00:45;18.42;;;13.73;;
16660;SDS011;8444;52.012;5.048;2023-02-13T12:05:56;18.35;;;13.60;;
16660;SDS011;8444;52.012;5.048;2023-02-13T12:08:23;18.77;;;12.90;;
16660;SDS011;8444;52.012;5.048;2023-02-13T12:10:48;20.00;;;14.35;;
16660;SDS011;8444;52.012;5.048;2023-02-13T12:13:15;20.40;;;13.25;;
16660;SDS011;8444;52.012;5.048;2023-02-13T12:15:44;16.20;;;12.00;;
16660;SDS011;8444;52.012;5.048;2023-02-13T12:18:18;21.70;;;13.27;;
16660;SDS011;8444;52.012;5.048;2023-02-13T12:21:08;17.58;;;12.30;;
16660;SDS011;8444;52.012;5.048;2023-02-13T12:26:20;16.85;;;11.75;;
16660;SDS011;8444;52.012;5.048;2023-02-13T12:34:10;16.33;;;11.55;;
16660;SDS011;8444;52.012;5.048;2023-02-13T12:39:17;16.58;;;12.80;;
16660;SDS011;8444;52.012;5.048;2023-02-13T12:41:48;16.15;;;11.75;;
16660;SDS011;8444;52.012;5.048;2023-02-13T12:44:22;18.05;;;13.35;;
16660;SDS011;8444;52.012;5.048;2023-02-13T13:00:08;14.45;;;11.30;;
16660;SDS011;8444;52.012;5.048;2023-02-13T13:08:30;18.33;;;11.93;;
16660;SDS011;8444;52.012;5.048;2023-02-13T13:16:03;15.32;;;11.88;;
16660;SDS011;8444;52.012;5.048;2023-02-13T13:18:32;17.33;;;11.93;;
16660;SDS011;8444;52.012;5.048;2023-02-13T13:26:34;16.30;;;11.88;;
16660;SDS011;8444;52.012;5.048;2023-02-13T13:29:02;17.88;;;12.02;;
16660;SDS011;8444;52.012;5.048;2023-02-13T13:31:28;19.75;;;12.27;;
16660;SDS011;8444;52.012;5.048;2023-02-13T13:33:55;15.45;;;11.57;;
16660;SDS011;8444;52.012;5.048;2023-02-13T13:36:31;15.18;;;11.30;;
16660;SDS011;8444;52.012;5.048;2023-02-13T13:42:21;13.32;;;9.80;;
16660;SDS011;8444;52.012;5.048;2023-02-13T13:44:41;11.98;;;10.32;;
16660;SDS011;8444;52.012;5.048;2023-02-13T13:47:13;15.52;;;11.13;;
16660;SDS011;8444;52.012;5.048;2023-02-13T13:49:47;15.52;;;10.57;;
16660;SDS011;8444;52.012;5.048;2023-02-13T13:52:26;16.67;;;11.93;;
16660;SDS011;8444;52.012;5.048;2023-02-13T13:54:52;19.08;;;12.40;;
16660;SDS011;8444;52.012;5.048;2023-02-13T13:57:21;19.67;;;12.70;;
16660;SDS011;8444;52.012;5.048;2023-02-13T14:04:42;16.60;;;11.37;;
16660;SDS011;8444;52.012;5.048;2023-02-13T14:07:23;14.45;;;10.52;;
16660;SDS011;8444;52.012;5.048;2023-02-13T14:09:49;14.43;;;10.77;;
16660;SDS011;8444;52.012;5.048;2023-02-13T14:14:48;15.02;;;10.32;;
16660;SDS011;8444;52.012;5.048;2023-02-13T14:17:14;14.15;;;11.00;;
16660;SDS011;8444;52.012;5.048;2023-02-13T14:19:40;14.55;;;11.27;;
16660;SDS011;8444;52.012;5.048;2023-02-13T14:24:55;16.02;;;10.85;;
16660;SDS011;8444;52.012;5.048;2023-02-13T14:29:46;15.18;;;10.90;;
16660;SDS011;8444;52.012;5.048;2023-02-13T14:32:16;15.50;;;11.20;;
16660;SDS011;8444;52.012;5.048;2023-02-13T14:34:42;15.55;;;11.57;;
16660;SDS011;8444;52.012;5.048;2023-02-13T14:37:18;17.08;;;11.27;;
16660;SDS011;8444;52.012;5.048;2023-02-13T14:42:34;13.60;;;10.55;;
16660;SDS011;8444;52.012;5.048;2023-02-13T14:45:00;14.45;;;10.52;;
16660;SDS011;8444;52.012;5.048;2023-02-13T14:47:34;15.25;;;11.25;;
16660;SDS011;8444;52.012;5.048;2023-02-13T14:50:00;17.25;;;11.48;;
16660;SDS011;8444;52.012;5.048;2023-02-13T14:52:26;13.85;;;10.20;;
16660;SDS011;8444;52.012;5.048;2023-02-13T14:54:54;14.95;;;10.75;;
16660;SDS011;8444;52.012;5.048;2023-02-13T14:57:24;16.20;;;11.20;;
16660;SDS011;8444;52.012;5.048;2023-02-13T14:59:58;17.00;;;11.38;;
16660;SDS011;8444;52.012;5.048;2023-02-13T15:02:26;16.67;;;12.30;;
16660;SDS011;8444;52.012;5.048;2023-02-13T15:05:11;16.38;;;11.80;;
16660;SDS011;8444;52.012;5.048;2023-02-13T15:07:40;14.30;;;11.23;;
16660;SDS011;8444;52.012;5.048;2023-02-13T15:10:55;17.27;;;11.60;;
16660;SDS011;8444;52.012;5.048;2023-02-13T15:12:58;15.20;;;10.52;;
16660;SDS011;8444;52.012;5.048;2023-02-13T15:17:53;14.95;;;11.45;;
16660;SDS011;8444;52.012;5.048;2023-02-13T15:22:46;16.45;;;11.95;;
16660;SDS011;8444;52.012;5.048;2023-02-13T15:27:55;18.65;;;13.25;;
16660;SDS011;8444;52.012;5.048;2023-02-13T15:30:26;18.60;;;13.00;;
16660;SDS011;8444;52.012;5.048;2023-02-13T15:32:56;17.15;;;12.13;;
16660;SDS011;8444;52.012;5.048;2023-02-13T15:35:23;16.85;;;11.50;;
16660;SDS011;8444;52.012;5.048;2023-02-13T15:37:48;16.95;;;12.13;;
16660;SDS011;8444;52.012;5.048;2023-02-13T15:40:21;18.30;;;12.30;;
16660;SDS011;8444;52.012;5.048;2023-02-13T15:42:48;17.67;;;12.82;;
16660;SDS011;8444;52.012;5.048;2023-02-13T15:45:15;22.27;;;13.38;;
16660;SDS011;8444;52.012;5.048;2023-02-13T15:47:41;16.42;;;12.65;;
16660;SDS011;8444;52.012;5.048;2023-02-13T15:53:03;19.08;;;13.73;;
16660;SDS011;8444;52.012;5.048;2023-02-13T15:55:30;17.90;;;12.15;;
16660;SDS011;8444;52.012;5.048;2023-02-13T15:57:57;17.73;;;13.60;;
16660;SDS011;8444;52.012;5.048;2023-02-13T16:00:24;16.45;;;12.00;;
16660;SDS011;8444;52.012;5.048;2023-02-13T16:02:51;20.23;;;13.57;;
16660;SDS011;8444;52.012;5.048;2023-02-13T16:05:17;17.35;;;12.50;;
16660;SDS011;8444;52.012;5.048;2023-02-13T16:07:50;17.73;;;12.55;;
16660;SDS011;8444;52.012;5.048;2023-02-13T16:12:47;21.08;;;14.27;;
16660;SDS011;8444;52.012;5.048;2023-02-13T16:15:14;18.98;;;13.95;;
16660;SDS011;8444;52.012;5.048;2023-02-13T16:17:41;17.45;;;12.65;;
16660;SDS011;8444;52.012;5.048;2023-02-13T16:22:38;18.58;;;13.82;;
16660;SDS011;8444;52.012;5.048;2023-02-13T16:25:08;15.82;;;11.63;;
16660;SDS011;8444;52.012;5.048;2023-02-13T16:27:49;22.98;;;13.55;;
16660;SDS011;8444;52.012;5.048;2023-02-13T16:32:43;19.63;;;14.00;;
16660;SDS011;8444;52.012;5.048;2023-02-13T16:35:16;18.55;;;13.23;;
16660;SDS011;8444;52.012;5.048;2023-02-13T16:37:55;17.77;;;12.43;;
16660;SDS011;8444;52.012;5.048;2023-02-13T16:43:31;19.67;;;13.60;;
16660;SDS011;8444;52.012;5.048;2023-02-13T16:45:40;20.80;;;14.18;;
16660;SDS011;8444;52.012;5.048;2023-02-13T16:48:08;19.30;;;13.52;;
16660;SDS011;8444;52.012;5.048;2023-02-13T16:50:33;19.83;;;14.70;;
16660;SDS011;8444;52.012;5.048;2023-02-13T16:53:00;21.55;;;14.20;;
16660;SDS011;8444;52.012;5.048;2023-02-13T16:55:26;18.13;;;12.55;;
16660;SDS011;8444;52.012;5.048;2023-02-13T16:57:51;20.73;;;14.18;;
16660;SDS011;8444;52.012;5.048;2023-02-13T17:00:24;20.25;;;14.55;;
16660;SDS011;8444;52.012;5.048;2023-02-13T17:02:51;17.10;;;12.93;;
16660;SDS011;8444;52.012;5.048;2023-02-13T17:07:43;21.02;;;13.98;;
16660;SDS011;8444;52.012;5.048;2023-02-13T17:12:42;21.63;;;14.77;;
16660;SDS011;8444;52.012;5.048;2023-02-13T17:15:09;20.43;;;13.83;;
16660;SDS011;8444;52.012;5.048;2023-02-13T17:17:36;19.83;;;12.63;;
16660;SDS011;8444;52.012;5.048;2023-02-13T17:20:01;20.40;;;13.40;;
16660;SDS011;8444;52.012;5.048;2023-02-13T17:22:35;22.57;;;14.00;;
16660;SDS011;8444;52.012;5.048;2023-02-13T17:25:03;22.13;;;14.43;;
16660;SDS011;8444;52.012;5.048;2023-02-13T17:27:29;22.00;;;14.60;;
16660;SDS011;8444;52.012;5.048;2023-02-13T17:29:54;21.33;;;13.70;;
16660;SDS011;8444;52.012;5.048;2023-02-13T17:32:20;24.50;;;14.43;;
16660;SDS011;8444;52.012;5.048;2023-02-13T17:34:46;21.80;;;13.73;;
16660;SDS011;8444;52.012;5.048;2023-02-13T17:37:15;23.60;;;15.20;;